Time;durP1;ratioP1;P1;durP2;ratioP2;P2;SDS_P1;SDS_P2;PMS_P1;PMS_P2;Temp;Humidity;BMP_temperature;BMP_pressure;BME280_temperature;BME280_humidity;BME280_pressure;Samples;Min_cycle;Max_cycle;Signal;HPM_P1;HPM_P2
2021/09/25 00:01:48;;;;;;;9.70;5.05;;;17.00;99.90;;;;;;5131636;27;20073;-56
2021/09/25 00:04:15;;;;;;;9.55;5.30;;;17.10;99.90;;;;;;5148428;27;20570;-56
2021/09/25 00:06:41;;;;;;;7.68;5.13;;;17.00;99.90;;;;;;5147769;27;20051;-54
2021/09/25 00:09:07;;;;;;;7.07;4.53;;;17.00;99.90;;;;;;5139360;27;20138;-56
2021/09/25 00:11:33;;;;;;;10.80;4.80;;;17.10;99.90;;;;;;5128973;27;20062;-57
2021/09/25 00:13:59;;;;;;;8.43;4.95;;;17.00;99.90;;;;;;5136591;27;20156;-55
2021/09/25 00:16:26;;;;;;;8.00;4.70;;;17.00;99.90;;;;;;5149362;27;20046;-55
2021/09/25 00:18:57;;;;;;;7.90;4.72;;;17.00;99.90;;;;;;5124249;27;20051;-55
2021/09/25 00:21:27;;;;;;;10.30;4.65;;;17.00;99.90;;;;;;5152867;27;20057;-56
2021/09/25 00:23:53;;;;;;;9.45;4.60;;;17.00;99.90;;;;;;5133411;27;20146;-56
2021/09/25 00:26:19;;;;;;;9.80;4.80;;;17.00;99.90;;;;;;5140343;27;20495;-55
2021/09/25 00:28:46;;;;;;;10.32;5.53;;;17.00;99.90;;;;;;5129250;27;20043;-56
2021/09/25 00:31:12;;;;;;;11.40;4.95;;;17.00;99.90;;;;;;5149188;27;20050;-55
2021/09/25 00:33:38;;;;;;;10.43;4.78;;;17.00;99.90;;;;;;5152566;27;20065;-54
2021/09/25 00:36:04;;;;;;;10.90;4.20;;;17.00;99.90;;;;;;5131131;27;20085;-53
2021/09/25 00:38:31;;;;;;;10.70;4.68;;;17.00;99.90;;;;;;5115127;27;20167;-54
2021/09/25 00:40:57;;;;;;;11.95;4.38;;;17.00;99.90;;;;;;5129106;27;20082;-57
2021/09/25 00:43:23;;;;;;;14.80;4.75;;;17.00;99.90;;;;;;5120661;27;20063;-55
2021/09/25 00:45:49;;;;;;;10.90;4.72;;;17.00;99.90;;;;;;5153131;27;20059;-55
2021/09/25 00:48:15;;;;;;;12.60;4.95;;;17.00;99.90;;;;;;5153457;27;20099;-56
2021/09/25 00:50:41;;;;;;;12.27;4.90;;;17.00;99.90;;;;;;5130498;27;20769;-56
2021/09/25 00:53:11;;;;;;;11.90;5.20;;;17.10;99.90;;;;;;5151957;27;20072;-56
2021/09/25 00:55:37;;;;;;;10.75;4.53;;;17.10;99.90;;;;;;5127053;27;20058;-53
2021/09/25 00:58:05;;;;;;;10.20;4.38;;;17.10;99.90;;;;;;5151400;27;20050;-56
2021/09/25 01:00:33;;;;;;;10.07;4.18;;;17.00;99.90;;;;;;5150452;27;20505;-55
2021/09/25 01:02:59;;;;;;;13.68;4.30;;;17.00;99.90;;;;;;5129165;27;20119;-56
2021/09/25 01:05:25;;;;;;;7.63;3.90;;;17.00;99.90;;;;;;5132685;27;20271;-55
2021/09/25 01:07:52;;;;;;;11.55;4.78;;;17.00;99.90;;;;;;5149131;27;20057;-56
2021/09/25 01:10:20;;;;;;;10.32;4.63;;;17.00;99.90;;;;;;5150167;27;20118;-55
2021/09/25 01:12:47;;;;;;;12.05;4.13;;;17.00;99.90;;;;;;5124089;27;20058;-55
2021/09/25 01:15:16;;;;;;;9.13;4.78;;;17.00;99.90;;;;;;5144803;27;20047;-57
2021/09/25 01:17:44;;;;;;;13.43;4.70;;;16.90;99.90;;;;;;5152603;27;20047;-55
2021/09/25 01:20:14;;;;;;;13.60;4.90;;;17.00;99.90;;;;;;5152112;27;20058;-56
2021/09/25 01:22:43;;;;;;;12.00;5.43;;;16.90;99.90;;;;;;5151662;27;20038;-55
2021/09/25 01:25:10;;;;;;;9.32;4.97;;;16.90;99.90;;;;;;5151632;27;20534;-56
2021/09/25 01:27:40;;;;;;;11.83;4.67;;;16.90;99.90;;;;;;5150460;27;20069;-56
2021/09/25 01:30:11;;;;;;;11.77;5.05;;;16.90;99.90;;;;;;5152023;27;20049;-56
2021/09/25 01:32:38;;;;;;;10.88;4.30;;;16.90;99.90;;;;;;5129041;27;20046;-56
2021/09/25 01:35:05;;;;;;;10.90;4.97;;;16.90;99.90;;;;;;5151402;27;20100;-56
2021/09/25 01:37:31;;;;;;;12.68;4.63;;;17.00;99.90;;;;;;5151137;27;20054;-55
2021/09/25 01:39:59;;;;;;;13.40;4.30;;;17.00;99.90;;;;;;5147234;27;20595;-55
2021/09/25 01:42:25;;;;;;;11.70;5.28;;;16.90;99.90;;;;;;5149142;27;20054;-55
2021/09/25 01:44:52;;;;;;;12.50;5.18;;;16.90;99.90;;;;;;5152090;27;20058;-56
2021/09/25 01:47:21;;;;;;;14.27;5.18;;;16.90;99.90;;;;;;5151735;27;20149;-56
2021/09/25 01:49:50;;;;;;;10.93;4.60;;;16.90;99.90;;;;;;5148012;27;20470;-55
2021/09/25 01:52:18;;;;;;;10.02;4.53;;;16.90;99.90;;;;;;5148858;27;20042;-55
2021/09/25 01:54:45;;;;;;;9.93;4.38;;;16.90;99.90;;;;;;5132807;27;20742;-55
2021/09/25 01:57:12;;;;;;;11.75;4.85;;;16.90;99.90;;;;;;5148073;27;20043;-56
2021/09/25 01:59:39;;;;;;;10.82;4.93;;;16.90;99.90;;;;;;5150583;27;20483;-54
2021/09/25 02:02:08;;;;;;;15.80;5.32;;;16.90;99.90;;;;;;5151132;27;20059;-56
2021/09/25 02:04:38;;;;;;;13.50;4.93;;;16.90;99.90;;;;;;5148001;27;20158;-54
2021/09/25 02:07:07;;;;;;;10.83;4.70;;;16.90;99.90;;;;;;5136141;27;20055;-54
2021/09/25 02:09:33;;;;;;;13.43;5.07;;;16.90;99.90;;;;;;5152161;27;20089;-55
2021/09/25 02:12:03;;;;;;;12.57;4.75;;;16.90;99.90;;;;;;5149106;27;20058;-55
2021/09/25 02:14:30;;;;;;;14.05;4.28;;;16.90;99.90;;;;;;5143890;27;20043;-56
2021/09/25 02:16:57;;;;;;;11.43;5.03;;;16.80;99.90;;;;;;5151888;27;20545;-55
2021/09/25 02:19:23;;;;;;;13.93;4.82;;;16.90;99.90;;;;;;5132221;27;20075;-56
2021/09/25 02:21:50;;;;;;;11.07;4.75;;;16.90;99.90;;;;;;5112848;27;20055;-54
2021/09/25 02:24:16;;;;;;;17.25;4.28;;;16.80;99.90;;;;;;5147912;27;20070;-56
2021/09/25 02:26:42;;;;;;;11.18;4.22;;;16.80;99.90;;;;;;5147393;27;20086;-56
2021/09/25 02:29:09;;;;;;;13.20;4.40;;;16.80;99.90;;;;;;5148961;27;20418;-56
2021/09/25 02:31:38;;;;;;;13.00;4.57;;;16.80;99.90;;;;;;5132707;27;20050;-57
2021/09/25 02:34:05;;;;;;;10.65;4.50;;;16.80;99.90;;;;;;5149811;27;20134;-56
2021/09/25 02:36:31;;;;;;;10.98;4.10;;;16.80;99.90;;;;;;5147436;27;20089;-53
2021/09/25 02:38:59;;;;;;;12.05;5.15;;;16.80;99.90;;;;;;5149602;27;20418;-55
2021/09/25 02:41:25;;;;;;;11.93;5.15;;;16.80;99.90;;;;;;5147042;27;20051;-55
2021/09/25 02:43:51;;;;;;;14.32;5.50;;;16.80;99.90;;;;;;5149096;27;20490;-56
2021/09/25 02:46:17;;;;;;;11.07;5.07;;;16.70;99.90;;;;;;5130711;27;20864;-56
2021/09/25 02:48:43;;;;;;;10.60;5.03;;;16.80;99.90;;;;;;5149285;27;20505;-55
2021/09/25 02:51:09;;;;;;;12.65;4.78;;;16.80;99.90;;;;;;5150421;27;20059;-57
2021/09/25 02:53:35;;;;;;;12.02;4.80;;;16.80;99.90;;;;;;5149121;27;20054;-55
2021/09/25 02:56:01;;;;;;;13.60;5.72;;;16.80;99.90;;;;;;5142973;27;20107;-55
2021/09/25 02:58:28;;;;;;;15.75;5.22;;;16.80;99.90;;;;;;5122409;27;20058;-55
2021/09/25 03:00:54;;;;;;;14.95;5.40;;;16.70;99.90;;;;;;5143431;27;20050;-55
2021/09/25 03:03:20;;;;;;;10.57;5.05;;;16.70;99.90;;;;;;5129277;27;20053;-56
2021/09/25 03:05:46;;;;;;;15.05;5.63;;;16.70;99.90;;;;;;5149073;27;20042;-56
2021/09/25 03:08:14;;;;;;;17.23;5.78;;;16.70;99.90;;;;;;5147731;27;20081;-53
2021/09/25 03:10:43;;;;;;;10.80;5.00;;;16.70;99.90;;;;;;5124569;27;20058;-55
2021/09/25 03:13:09;;;;;;;13.65;5.45;;;16.70;99.90;;;;;;5144983;27;20063;-55
2021/09/25 03:15:35;;;;;;;13.63;5.72;;;16.70;99.90;;;;;;5145099;27;20134;-54
2021/09/25 03:18:01;;;;;;;11.98;5.88;;;16.70;99.90;;;;;;5148884;27;20047;-56
2021/09/25 03:20:27;;;;;;;14.10;6.35;;;16.70;99.90;;;;;;5140582;27;20050;-57
2021/09/25 03:22:56;;;;;;;13.35;6.35;;;16.70;99.90;;;;;;5138892;27;20078;-56
2021/09/25 03:25:22;;;;;;;16.13;6.15;;;16.70;99.90;;;;;;5144944;27;20495;-56
2021/09/25 03:27:53;;;;;;;14.13;7.05;;;16.70;99.90;;;;;;5146897;27;20753;-57
2021/09/25 03:30:21;;;;;;;12.98;6.47;;;16.70;99.90;;;;;;5148278;27;20054;-57
2021/09/25 03:32:47;;;;;;;14.35;6.20;;;16.70;99.90;;;;;;5148578;27;20807;-56
2021/09/25 03:35:13;;;;;;;15.70;6.13;;;16.70;99.90;;;;;;5149213;27;20054;-54
2021/09/25 03:37:40;;;;;;;10.75;6.30;;;16.70;99.90;;;;;;5148134;27;20113;-56
2021/09/25 03:40:07;;;;;;;12.13;6.07;;;16.70;99.90;;;;;;5128619;27;20064;-57
2021/09/25 03:42:36;;;;;;;16.52;7.35;;;16.70;99.90;;;;;;5142066;27;20058;-55
2021/09/25 03:45:05;;;;;;;14.55;7.00;;;16.70;99.90;;;;;;5143992;27;20080;-56
2021/09/25 03:47:31;;;;;;;10.93;6.97;;;16.70;99.90;;;;;;5147583;27;20058;-55
2021/09/25 03:49:57;;;;;;;11.88;6.93;;;16.80;99.90;;;;;;5149084;27;20478;-57
2021/09/25 03:52:23;;;;;;;17.25;7.70;;;16.70;99.90;;;;;;5145894;27;20102;-57
2021/09/25 03:54:49;;;;;;;14.00;7.57;;;16.70;99.90;;;;;;5147427;27;20495;-57
2021/09/25 03:57:15;;;;;;;16.75;7.53;;;16.80;99.90;;;;;;5128720;27;20878;-56
2021/09/25 03:59:41;;;;;;;12.00;7.20;;;16.80;99.90;;;;;;5142717;27;20054;-57
2021/09/25 04:02:07;;;;;;;11.88;6.95;;;16.80;99.90;;;;;;5120502;27;20092;-55
2021/09/25 04:04:33;;;;;;;14.50;7.90;;;16.80;99.90;;;;;;5148908;27;20138;-57
2021/09/25 04:06:59;;;;;;;18.08;8.13;;;16.70;99.90;;;;;;5149357;27;20478;-57
2021/09/25 04:09:26;;;;;;;12.45;7.97;;;16.80;99.90;;;;;;5129333;27;20055;-54
2021/09/25 04:11:54;;;;;;;16.08;7.93;;;16.80;99.90;;;;;;5144127;27;20047;-57
2021/09/25 04:14:21;;;;;;;16.20;7.93;;;16.80;99.90;;;;;;5145720;27;20050;-55
2021/09/25 04:16:47;;;;;;;10.43;7.32;;;16.80;99.90;;;;;;5148972;27;20053;-56
2021/09/25 04:19:16;;;;;;;12.73;8.13;;;16.80;99.90;;;;;;5148188;27;20054;-57
2021/09/25 04:21:43;;;;;;;13.93;8.20;;;16.80;99.90;;;;;;5148516;27;20058;-56
2021/09/25 04:24:11;;;;;;;13.38;7.90;;;16.80;99.90;;;;;;5144684;27;20059;-57
2021/09/25 04:26:38;;;;;;;16.42;7.82;;;16.80;99.90;;;;;;5146760;27;20086;-56
2021/09/25 04:29:04;;;;;;;15.63;8.80;;;16.80;99.90;;;;;;5148888;27;20129;-57
2021/09/25 04:31:34;;;;;;;12.50;8.63;;;16.80;99.90;;;;;;5147905;27;20102;-56
2021/09/25 04:34:04;;;;;;;16.30;8.93;;;16.80;99.90;;;;;;5145054;27;20058;-56
2021/09/25 04:36:31;;;;;;;19.90;10.23;;;16.70;99.90;;;;;;5149060;27;20070;-55
2021/09/25 04:38:58;;;;;;;16.95;9.45;;;16.70;99.90;;;;;;5147526;27;20768;-54
2021/09/25 04:41:24;;;;;;;14.15;8.60;;;16.70;99.90;;;;;;5141665;27;20078;-56
2021/09/25 04:43:50;;;;;;;16.02;8.85;;;16.70;99.90;;;;;;5135842;27;20058;-56
2021/09/25 04:46:16;;;;;;;16.48;10.23;;;16.70;99.90;;;;;;5134318;27;20043;-56
2021/09/25 04:48:42;;;;;;;17.08;9.63;;;16.70;99.90;;;;;;5134933;27;20122;-56
2021/09/25 04:51:08;;;;;;;14.80;9.65;;;16.70;99.90;;;;;;5147680;27;20151;-56
2021/09/25 04:53:34;;;;;;;14.98;10.52;;;16.60;99.90;;;;;;5147663;27;20087;-56
2021/09/25 04:56:00;;;;;;;15.73;9.88;;;16.60;99.90;;;;;;5141872;27;20443;-56
2021/09/25 04:58:29;;;;;;;19.38;10.95;;;16.60;99.90;;;;;;5141185;27;20051;-60
2021/09/25 05:00:56;;;;;;;18.52;10.00;;;16.50;99.90;;;;;;5129267;27;20062;-57
2021/09/25 05:03:23;;;;;;;16.42;10.73;;;16.40;99.90;;;;;;5148281;27;20050;-57
2021/09/25 05:05:49;;;;;;;21.63;10.98;;;16.40;99.90;;;;;;5150644;27;20089;-54
2021/09/25 05:08:15;;;;;;;17.88;10.88;;;16.20;99.90;;;;;;5151281;27;20039;-56
2021/09/25 05:10:42;;;;;;;15.65;10.38;;;16.20;99.90;;;;;;5146985;27;20400;-56
2021/09/25 05:13:08;;;;;;;16.27;10.65;;;16.10;99.90;;;;;;5149370;27;20093;-56
2021/09/25 05:15:34;;;;;;;20.08;11.70;;;16.10;99.90;;;;;;5127686;27;20039;-55
2021/09/25 05:18:00;;;;;;;21.42;13.13;;;16.10;99.90;;;;;;5151301;27;20054;-57
2021/09/25 05:20:26;;;;;;;17.45;11.88;;;16.10;99.90;;;;;;5151719;27;20059;-56
2021/09/25 05:22:56;;;;;;;18.52;11.88;;;16.20;99.90;;;;;;5149178;27;20055;-54
2021/09/25 05:25:22;;;;;;;16.65;13.10;;;16.20;99.90;;;;;;5148206;27;20054;-57
2021/09/25 05:27:49;;;;;;;18.02;11.93;;;16.20;99.90;;;;;;5129068;27;20046;-56
2021/09/25 05:30:15;;;;;;;16.02;11.63;;;16.30;99.90;;;;;;5145791;27;20181;-59
2021/09/25 05:32:41;;;;;;;18.05;11.77;;;16.30;99.90;;;;;;5149566;27;20050;-57
2021/09/25 05:35:08;;;;;;;16.88;11.25;;;16.30;99.90;;;;;;5127791;27;20103;-58
2021/09/25 05:37:34;;;;;;;17.23;11.88;;;16.30;99.90;;;;;;5141619;27;20046;-57
2021/09/25 05:40:01;;;;;;;17.80;11.60;;;16.40;99.90;;;;;;5148012;27;20085;-55
2021/09/25 05:42:29;;;;;;;69.82;54.17;;;16.40;99.90;;;;;;5150486;27;20054;-57
2021/09/25 05:44:55;;;;;;;112.30;99.95;;;16.40;99.90;;;;;;5146431;27;20066;-57
2021/09/25 05:47:22;;;;;;;25.17;17.15;;;16.40;99.90;;;;;;5148009;27;20559;-57
2021/09/25 05:49:48;;;;;;;22.20;14.52;;;16.40;99.90;;;;;;5151295;27;20049;-58
2021/09/25 05:52:16;;;;;;;20.85;12.00;;;16.40;99.90;;;;;;5132455;27;20506;-58
2021/09/25 05:54:42;;;;;;;17.23;11.43;;;16.40;99.90;;;;;;5151920;27;20071;-58
2021/09/25 05:57:09;;;;;;;21.45;14.00;;;16.40;99.90;;;;;;5131654;27;20130;-55
2021/09/25 05:59:36;;;;;;;22.25;15.15;;;16.40;99.90;;;;;;5130123;27;20131;-58
2021/09/25 06:02:03;;;;;;;25.25;20.65;;;16.40;99.90;;;;;;5150844;27;20047;-58
2021/09/25 06:04:32;;;;;;;19.42;12.85;;;16.40;99.90;;;;;;5151413;27;20065;-57
2021/09/25 06:06:58;;;;;;;45.03;36.80;;;16.50;99.90;;;;;;5139736;27;20138;-55
2021/09/25 06:09:24;;;;;;;54.85;48.85;;;16.50;99.90;;;;;;5120955;27;20672;-57
2021/09/25 06:11:51;;;;;;;34.85;29.45;;;16.50;99.90;;;;;;5146284;27;20059;-57
2021/09/25 06:14:18;;;;;;;18.60;12.45;;;16.50;99.90;;;;;;5137594;27;20051;-56
2021/09/25 06:16:46;;;;;;;26.75;21.67;;;16.50;99.90;;;;;;5149914;27;20502;-55
2021/09/25 06:19:16;;;;;;;19.77;13.30;;;16.50;99.90;;;;;;5150319;27;20131;-56
2021/09/25 06:21:45;;;;;;;23.73;15.93;;;16.40;99.90;;;;;;5143336;27;20054;-54
2021/09/25 06:24:11;;;;;;;29.75;16.85;;;16.50;99.90;;;;;;5137975;27;20051;-56
2021/09/25 06:26:37;;;;;;;17.02;12.32;;;16.50;99.90;;;;;;5104885;27;20054;-55
2021/09/25 06:29:04;;;;;;;22.23;15.48;;;16.50;99.90;;;;;;5148808;27;20106;-56
2021/09/25 06:31:30;;;;;;;29.88;25.70;;;16.50;99.90;;;;;;5135461;27;20088;-57
2021/09/25 06:33:56;;;;;;;33.70;23.02;;;16.50;99.90;;;;;;5130709;27;20047;-57
2021/09/25 06:36:25;;;;;;;22.75;14.25;;;16.50;99.90;;;;;;5130524;27;20437;-57
2021/09/25 06:38:51;;;;;;;21.08;13.95;;;16.60;99.90;;;;;;5141484;27;20050;-58
2021/09/25 06:41:20;;;;;;;26.23;17.13;;;16.60;99.90;;;;;;5128178;27;20823;-54
2021/09/25 06:43:46;;;;;;;24.00;14.25;;;16.60;99.90;;;;;;5136942;27;20134;-56
2021/09/25 06:46:14;;;;;;;15.20;12.15;;;16.70;99.90;;;;;;5146476;27;20559;-57
2021/09/25 06:48:43;;;;;;;20.10;13.57;;;16.70;99.90;;;;;;5139701;27;20545;-56
2021/09/25 06:51:10;;;;;;;18.77;11.63;;;16.70;99.90;;;;;;5119862;27;20164;-58
2021/09/25 06:53:36;;;;;;;17.63;11.55;;;16.80;99.90;;;;;;5138140;27;20086;-58
2021/09/25 06:56:04;;;;;;;21.80;14.38;;;16.80;99.90;;;;;;5130656;27;20061;-58
2021/09/25 06:58:30;;;;;;;16.48;11.60;;;16.90;99.90;;;;;;5151244;27;20133;-57
2021/09/25 07:00:56;;;;;;;45.00;37.25;;;16.90;99.90;;;;;;5148456;27;20467;-59
2021/09/25 07:03:22;;;;;;;35.30;29.48;;;17.00;99.90;;;;;;5150939;27;20449;-58
2021/09/25 07:05:48;;;;;;;39.55;31.27;;;17.00;99.90;;;;;;5132045;27;20063;-59
2021/09/25 07:08:15;;;;;;;25.42;21.15;;;17.00;99.90;;;;;;5132145;27;20050;-59
2021/09/25 07:10:43;;;;;;;21.52;15.88;;;17.10;99.90;;;;;;5115768;27;20486;-58
2021/09/25 07:13:09;;;;;;;20.63;11.93;;;17.10;99.90;;;;;;5126785;27;20055;-58
2021/09/25 07:15:36;;;;;;;19.30;12.95;;;17.10;99.90;;;;;;5126836;27;20050;-58
2021/09/25 07:18:02;;;;;;;21.80;15.70;;;17.20;99.90;;;;;;5147075;27;20058;-59
2021/09/25 07:20:28;;;;;;;19.27;14.40;;;17.20;99.90;;;;;;5148210;27;20100;-58
2021/09/25 07:22:54;;;;;;;22.38;13.88;;;17.20;99.90;;;;;;5141425;27;20054;-58
2021/09/25 07:25:22;;;;;;;26.92;14.13;;;17.30;99.90;;;;;;5147692;27;20194;-57
2021/09/25 07:27:50;;;;;;;28.05;22.65;;;17.30;99.90;;;;;;5138518;27;20046;-58
2021/09/25 07:30:16;;;;;;;31.88;22.38;;;17.40;99.90;;;;;;5143714;27;20703;-58
2021/09/25 07:32:44;;;;;;;59.78;53.30;;;17.50;99.90;;;;;;5147127;27;20047;-58
2021/09/25 07:35:13;;;;;;;38.35;31.38;;;17.50;99.90;;;;;;5146440;27;20054;-58
2021/09/25 07:37:39;;;;;;;24.70;18.98;;;17.60;99.90;;;;;;5142870;27;20062;-57
2021/09/25 07:40:06;;;;;;;23.35;15.05;;;17.60;99.90;;;;;;5137201;27;20050;-58
2021/09/25 07:42:37;;;;;;;28.80;16.42;;;17.60;99.90;;;;;;5121594;27;20050;-58
2021/09/25 07:45:05;;;;;;;23.13;13.98;;;17.70;99.90;;;;;;5134150;27;20189;-58
2021/09/25 07:47:31;;;;;;;22.98;12.77;;;17.80;99.90;;;;;;5136650;27;20065;-57
2021/09/25 07:49:59;;;;;;;23.65;15.80;;;17.80;99.90;;;;;;5128219;27;20046;-58
2021/09/25 07:52:28;;;;;;;21.83;13.50;;;17.90;99.90;;;;;;5104109;27;20053;-56
2021/09/25 07:54:55;;;;;;;25.20;15.52;;;17.90;99.90;;;;;;5143972;27;20057;-57
2021/09/25 07:57:24;;;;;;;29.50;19.73;;;18.00;99.90;;;;;;5146337;27;20058;-58
2021/09/25 07:59:50;;;;;;;25.95;18.33;;;18.10;99.90;;;;;;5144202;27;20057;-55
2021/09/25 08:02:19;;;;;;;26.75;15.85;;;18.20;99.90;;;;;;5140015;27;20468;-50
2021/09/25 08:04:45;;;;;;;30.45;24.73;;;18.30;99.90;;;;;;5149271;27;20047;-52
2021/09/25 08:07:15;;;;;;;26.98;18.80;;;18.30;99.90;;;;;;5146352;27;20058;-53
2021/09/25 08:09:41;;;;;;;19.02;14.80;;;18.40;99.90;;;;;;5127273;27;20050;-54
2021/09/25 08:12:11;;;;;;;24.90;16.30;;;18.40;99.90;;;;;;5148556;27;20063;-55
2021/09/25 08:14:37;;;;;;;29.02;21.10;;;18.40;99.90;;;;;;5147496;27;20050;-53
2021/09/25 08:17:03;;;;;;;24.50;15.70;;;18.40;99.90;;;;;;5145889;27;20447;-54
2021/09/25 08:19:32;;;;;;;25.60;17.23;;;18.50;99.90;;;;;;5149025;27;20047;-54
2021/09/25 08:21:58;;;;;;;22.83;15.98;;;18.50;99.90;;;;;;5148135;27;20494;-53
2021/09/25 08:24:24;;;;;;;25.80;17.58;;;18.50;99.90;;;;;;5147274;27;20043;-57
2021/09/25 08:26:50;;;;;;;28.02;17.83;;;18.50;99.90;;;;;;5146493;27;20047;-57
2021/09/25 08:29:16;;;;;;;28.77;18.55;;;18.60;99.90;;;;;;5144166;27;20064;-56
2021/09/25 08:31:42;;;;;;;22.77;16.17;;;18.70;99.90;;;;;;5146087;27;20055;-56
2021/09/25 08:34:08;;;;;;;21.30;15.75;;;18.70;99.90;;;;;;5149812;27;20123;-53
2021/09/25 08:36:35;;;;;;;27.63;16.63;;;18.90;99.90;;;;;;5145344;27;20410;-56
2021/09/25 08:39:01;;;;;;;22.83;17.15;;;18.90;99.90;;;;;;5148630;27;20054;-55
2021/09/25 08:41:32;;;;;;;31.27;18.23;;;19.00;99.90;;;;;;5146100;27;20638;-55
2021/09/25 08:43:59;;;;;;;23.02;15.35;;;19.00;99.90;;;;;;5143849;27;20054;-55
2021/09/25 08:46:25;;;;;;;23.77;17.55;;;19.00;99.90;;;;;;5150263;27;20138;-56
2021/09/25 08:48:51;;;;;;;24.85;17.63;;;19.00;99.90;;;;;;5148184;27;20887;-56
2021/09/25 08:51:18;;;;;;;24.17;17.13;;;19.00;99.90;;;;;;5131140;27;20756;-56
2021/09/25 08:53:44;;;;;;;25.33;17.73;;;19.00;99.90;;;;;;5145691;27;20047;-57
2021/09/25 08:56:14;;;;;;;28.70;18.10;;;19.00;99.90;;;;;;5141875;27;20506;-57
2021/09/25 08:58:40;;;;;;;28.08;18.75;;;18.90;99.90;;;;;;5150216;27;20067;-56
2021/09/25 09:01:06;;;;;;;30.70;18.73;;;18.90;99.90;;;;;;5149383;27;20043;-51
2021/09/25 09:03:38;;;;;;;68.00;57.67;;;18.80;99.90;;;;;;5150731;27;20065;-56
2021/09/25 09:06:13;;;;;;;26.33;18.63;;;18.90;99.90;;;;;;5150659;27;20130;-56
2021/09/25 09:08:41;;;;;;;27.15;18.38;;;18.80;99.90;;;;;;5148858;27;20045;-57
2021/09/25 09:11:10;;;;;;;27.15;17.98;;;18.80;99.90;;;;;;5148764;27;20042;-56
2021/09/25 09:13:39;;;;;;;33.33;23.90;;;18.80;99.90;;;;;;5145271;27;20860;-55
2021/09/25 09:16:09;;;;;;;31.33;22.45;;;18.70;99.90;;;;;;5128917;27;20474;-56
2021/09/25 09:18:40;;;;;;;28.00;20.17;;;18.70;99.90;;;;;;5143241;27;20491;-55
2021/09/25 09:21:23;;;;;;;34.80;24.52;;;18.70;99.90;;;;;;5149744;27;20043;-55
2021/09/25 09:23:55;;;;;;;29.10;19.95;;;18.70;99.90;;;;;;5145293;27;20039;-56
2021/09/25 09:26:30;;;;;;;26.40;18.55;;;18.70;99.90;;;;;;5146210;27;20058;-53
2021/09/25 09:28:58;;;;;;;28.55;19.02;;;18.80;99.90;;;;;;5146409;27;20047;-55
2021/09/25 09:31:27;;;;;;;32.00;20.38;;;18.80;99.90;;;;;;5147348;27;20047;-56
2021/09/25 09:34:00;;;;;;;28.33;19.35;;;18.80;99.90;;;;;;5149356;27;20095;-56
2021/09/25 09:36:36;;;;;;;28.23;18.60;;;18.80;99.90;;;;;;5145506;27;20069;-55
2021/09/25 09:39:02;;;;;;;58.28;44.33;;;18.90;99.90;;;;;;5149232;27;20050;-51
2021/09/25 09:41:46;;;;;;;43.45;31.67;;;19.00;99.90;;;;;;5145176;27;21892;-47
2021/09/25 09:44:19;;;;;;;50.97;40.85;;;19.10;99.90;;;;;;5147278;27;20107;-46
2021/09/25 09:47:04;;;;;;;47.92;32.08;;;19.10;99.90;;;;;;5128651;27;20050;-49
2021/09/25 09:49:32;;;;;;;33.72;24.15;;;19.20;99.90;;;;;;5140647;27;20046;-46
2021/09/25 09:52:03;;;;;;;38.85;27.08;;;19.20;99.90;;;;;;5149845;27;20047;-48
2021/09/25 09:54:33;;;;;;;37.60;23.85;;;19.30;99.90;;;;;;5145037;27;20055;-47
2021/09/25 09:57:10;;;;;;;36.17;22.85;;;19.30;99.90;;;;;;5143368;27;20073;-48
2021/09/25 09:59:39;;;;;;;34.17;22.48;;;19.50;99.90;;;;;;5145637;27;20058;-45
2021/09/25 10:02:05;;;;;;;34.97;21.67;;;19.60;99.90;;;;;;5141182;27;20050;-47
2021/09/25 10:04:32;;;;;;;34.10;21.60;;;19.70;99.90;;;;;;5135605;27;20453;-48
2021/09/25 10:06:58;;;;;;;32.92;22.73;;;19.80;99.90;;;;;;5143710;27;20061;-48
2021/09/25 10:09:28;;;;;;;33.53;22.52;;;19.80;99.90;;;;;;5144721;27;20103;-46
2021/09/25 10:12:08;;;;;;;29.15;21.38;;;19.80;99.90;;;;;;5148984;27;20051;-50
2021/09/25 10:14:37;;;;;;;32.45;22.27;;;19.90;99.90;;;;;;5147180;27;20047;-49
2021/09/25 10:17:09;;;;;;;31.95;20.85;;;20.00;99.90;;;;;;5141126;27;20053;-48
2021/09/25 10:19:37;;;;;;;33.75;22.85;;;19.90;99.90;;;;;;5147022;27;20090;-45
2021/09/25 10:22:07;;;;;;;35.13;23.80;;;20.00;99.90;;;;;;5147858;27;20107;-47
2021/09/25 10:24:55;;;;;;;34.40;23.98;;;19.90;99.90;;;;;;5130277;27;20514;-49
2021/09/25 10:27:26;;;;;;;34.28;24.55;;;20.00;99.90;;;;;;5147566;27;20086;-46
2021/09/25 10:29:52;;;;;;;33.85;23.55;;;20.00;99.90;;;;;;5148924;27;20077;-46
2021/09/25 10:32:31;;;;;;;34.65;23.58;;;20.00;99.90;;;;;;5149124;27;20058;-48
2021/09/25 10:35:25;;;;;;;32.55;25.10;;;20.10;99.90;;;;;;5135663;27;20083;-47
2021/09/25 10:38:00;;;;;;;46.72;36.60;;;20.30;99.90;;;;;;5123796;27;20047;-50
2021/09/25 10:40:30;;;;;;;37.75;27.05;;;20.50;99.90;;;;;;5146636;27;20065;-47
2021/09/25 10:43:17;;;;;;;31.38;23.50;;;20.60;99.90;;;;;;5122288;27;20083;-46
2021/09/25 10:45:43;;;;;;;34.70;25.15;;;20.70;99.90;;;;;;5142346;27;20082;-51
2021/09/25 10:48:22;;;;;;;35.38;24.35;;;20.90;99.90;;;;;;5125835;27;20109;-45
2021/09/25 10:51:11;;;;;;;43.97;31.65;;;20.60;99.90;;;;;;5149582;27;20050;-46
2021/09/25 10:53:42;;;;;;;33.40;26.77;;;20.70;99.90;;;;;;5149681;27;20039;-46
2021/09/25 10:56:29;;;;;;;38.80;28.08;;;20.60;99.90;;;;;;5129665;27;20143;-46
2021/09/25 10:59:06;;;;;;;37.03;26.67;;;20.60;99.90;;;;;;5149454;27;20128;-45
2021/09/25 11:01:40;;;;;;;34.97;26.52;;;20.70;99.90;;;;;;5142434;27;20070;-47
2021/09/25 11:04:12;;;;;;;34.90;24.40;;;20.70;99.90;;;;;;5141731;27;20058;-48
2021/09/25 11:06:39;;;;;;;27.63;23.80;;;20.80;99.90;;;;;;5146108;27;20063;-49
2021/09/25 11:09:07;;;;;;;32.67;23.50;;;20.80;99.90;;;;;;5143076;27;20054;-48
2021/09/25 11:11:55;;;;;;;29.58;22.77;;;20.90;99.90;;;;;;5138479;27;20039;-46
2021/09/25 11:14:29;;;;;;;29.85;23.92;;;21.00;99.90;;;;;;5123237;27;20576;-47
2021/09/25 11:17:01;;;;;;;34.63;24.48;;;21.10;99.90;;;;;;5138908;27;20047;-45
2021/09/25 11:19:28;;;;;;;33.72;23.13;;;21.20;99.90;;;;;;5136540;27;20122;-45
2021/09/25 11:22:13;;;;;;;33.35;24.05;;;21.10;99.90;;;;;;5122786;27;20463;-46
2021/09/25 11:24:52;;;;;;;32.97;25.55;;;21.20;99.90;;;;;;5140204;27;20083;-48
2021/09/25 11:27:18;;;;;;;29.05;24.17;;;21.20;99.90;;;;;;5139709;27;20059;-46
2021/09/25 11:29:57;;;;;;;31.33;23.15;;;21.20;99.90;;;;;;5141438;27;20051;-46
2021/09/25 11:32:29;;;;;;;29.88;23.90;;;21.10;99.90;;;;;;5146049;27;20057;-45
2021/09/25 11:34:55;;;;;;;33.72;24.20;;;21.10;99.90;;;;;;5138419;27;20079;-46
2021/09/25 11:37:21;;;;;;;32.15;22.08;;;21.00;99.90;;;;;;5144960;27;20069;-45
2021/09/25 11:39:50;;;;;;;32.25;25.63;;;21.20;99.90;;;;;;5147943;27;20145;-48
2021/09/25 11:42:25;;;;;;;32.10;24.30;;;21.10;99.90;;;;;;5147924;27;20057;-47
2021/09/25 11:44:55;;;;;;;29.63;24.65;;;21.30;99.90;;;;;;5144608;27;20047;-48
2021/09/25 11:47:31;;;;;;;28.90;25.77;;;21.50;99.90;;;;;;5146543;27;20609;-46
2021/09/25 11:50:22;;;;;;;33.20;24.98;;;21.50;99.90;;;;;;5148087;27;20050;-48
2021/09/25 11:52:58;;;;;;;32.47;24.67;;;21.60;99.90;;;;;;5123389;27;20102;-48
2021/09/25 11:55:26;;;;;;;29.92;22.27;;;21.50;99.90;;;;;;5146390;27;20316;-47
2021/09/25 11:57:56;;;;;;;33.13;25.05;;;21.80;99.90;;;;;;5149841;27;20458;-47
2021/09/25 12:00:35;;;;;;;41.88;30.70;;;21.60;99.90;;;;;;5128552;27;20051;-46
2021/09/25 12:03:02;;;;;;;31.73;22.45;;;21.70;99.90;;;;;;5142809;27;20055;-46
2021/09/25 12:05:34;;;;;;;30.95;23.98;;;21.60;99.90;;;;;;5145221;27;20051;-56
2021/09/25 12:08:24;;;;;;;36.80;23.38;;;21.60;99.90;;;;;;5126022;28;20050;-48
2021/09/25 12:10:55;;;;;;;28.65;22.38;;;21.70;99.90;;;;;;5148924;27;20521;-50
2021/09/25 12:13:23;;;;;;;27.13;20.98;;;21.60;99.90;;;;;;5148254;27;20498;-51
2021/09/25 12:15:59;;;;;;;29.40;22.58;;;21.70;99.90;;;;;;5148833;27;20150;-51
2021/09/25 12:18:30;;;;;;;30.55;22.58;;;21.60;99.90;;;;;;5149080;27;20062;-49
2021/09/25 12:21:12;;;;;;;29.13;22.15;;;21.50;99.90;;;;;;5150425;27;20047;-50
2021/09/25 12:23:52;;;;;;;28.52;22.33;;;21.80;99.90;;;;;;5152543;27;20057;-51
2021/09/25 12:26:27;;;;;;;34.00;21.05;;;21.80;99.90;;;;;;5149191;27;20058;-50
2021/09/25 12:28:59;;;;;;;25.67;20.13;;;21.80;99.90;;;;;;5131151;27;20050;-50
2021/09/25 12:31:30;;;;;;;28.08;21.27;;;21.80;99.90;;;;;;5152834;27;20554;-49
2021/09/25 12:34:06;;;;;;;26.80;20.83;;;21.80;99.90;;;;;;5152705;27;20055;-49
2021/09/25 12:36:38;;;;;;;26.48;22.30;;;21.80;99.90;;;;;;5153429;27;20058;-54
2021/09/25 12:39:11;;;;;;;28.60;22.38;;;21.80;99.90;;;;;;5150753;27;20053;-50